Hauptseite
METAR-TAF:

METAR-TAF

Flughäfen :

Flughafen Mumbai

Mumbai, Indien

Breite: 19-07N, Länge: 072-51E, Höhe: 8 m

Beobachtung

Neuester Wetterbericht von vor 30 Minuten, um 14:30 UTC
Wind 8 kt aus West
Temperatur 32°C
Luftfeuchtigkeit 36%
Luftdruck 1010 hPa
Sichtweite: 4000 m
Rauch

METAR: VABB 261430Z 28008KT 4000 FU NSC 32/15 Q1010 NOSIG

Zeit: 20:30 (15:00 UTC)

Prognose

Neuester Wetterbericht von vor 1 Stunde und 0 Minuten, um 14:00 UTC
Gültige Prognose vom 26 um 15 UTC bis 26 um 24 UTC
Wind 7 kt aus Nord/Nordwest
Sichtweite: 4000 m
Leicht bewölkt in der Höhe von 10000 ft
Rauch
Übergehend zu
vom 26 um 18 UTC bis 26 um 20 UTC
Wind 6 kt aus Nord/Nordost
Sichtweite: 3000 m
trockener Dunst

TAF: VABB 261400Z 2615/2624 33007KT 4000 FU FEW100 BECMG 2618/2620 02006KT 3000 HZ

Wetterbeobachtungen und Prognosen von mehr als 4000 Flughäfen (METAR und TAF Bericht).

Die verfügbaren Stationen werden durch gelbe und rote Markierungen auf der Karte dargestellt.

Führen Sie die Maus auf sie, um den Namen der Station zu sehen.

Darauf klicken, um die Beobachtung von Wetterbeobachtungen und Prognosen zu sehen.

Um die Karte zu ändern : klicken Sie auf den grünen Tasten mit einem schwarzen Kreuz Zum Vergrößern, auf den grünen Button mit einem Gedankenstrich zu verkleinern, oder auf die grünen Pfeile für benachbarte Karten.


METAR-TAF: